Terminal Aerodrome Forecast
Issued by NWS

Home | Current Version | Previous Version | Text Only | Print | Product List | Glossary Off
Versions: 1 2 3 4 5 6 7 8 9 10 11 12 13 14 15

000
FTUS42 KMHX 310000 AAA
TAFISO
TAF AMD
KISO 310056Z 3101/3124 09003KT P6SM SCT060 BKN100
      TEMPO 3101/3102 6SM -RA BKN050
     FM310800 00000KT 5SM BR SCT040 SCT250
     FM311300 11005KT P6SM SCT040 SCT250
      AMD LTD TO CLD VIS AND WIND=

USA.gov is the U.S. government's official web portal to all federal, state and local government web resources and services.